Time;durP1;ratioP1;P1;durP2;ratioP2;P2;SDS_P1;SDS_P2;PMS_P1;PMS_P2;Temp;Humidity;BMP_temperature;BMP_pressure;BME280_temperature;BME280_humidity;BME280_pressure;Samples;Min_cycle;Max_cycle;Signal;HPM_P1;HPM_P2
2023/06/01 00:01:12;;;;;;;;;;;16.30;99.90;;;;;;7333901;19;109637;-67
2023/06/01 00:03:40;;;;;;;;;;;16.30;99.90;;;;;;7333368;19;110644;-67
2023/06/01 00:06:07;;;;;;;;;;;16.20;99.90;;;;;;7328815;19;113306;-67
2023/06/01 00:08:35;;;;;;;;;;;16.20;99.90;;;;;;7333240;19;110679;-67
2023/06/01 00:11:02;;;;;;;;;;;16.10;99.90;;;;;;7336860;19;110858;-67
2023/06/01 00:13:30;;;;;;;;;;;16.00;99.90;;;;;;7333724;19;110840;-68
2023/06/01 00:15:57;;;;;;;;;;;16.00;99.90;;;;;;7331696;19;111927;-67
2023/06/01 00:18:27;;;;;;;;;;;15.90;99.90;;;;;;7332510;19;111325;-67
2023/06/01 00:20:54;;;;;;;;;;;15.80;99.90;;;;;;7334820;19;109878;-67
2023/06/01 00:23:21;;;;;;;;;;;15.70;99.90;;;;;;7334812;19;110030;-67
2023/06/01 00:25:48;;;;;;;;;;;15.70;99.90;;;;;;7331526;19;110692;-69
2023/06/01 00:28:15;;;;;;;;;;;15.70;99.90;;;;;;7333962;19;111163;-68
2023/06/01 00:30:42;;;;;;;;;;;15.60;99.90;;;;;;7331868;19;110586;-68
2023/06/01 00:33:09;;;;;;;;;;;15.70;99.90;;;;;;7337951;19;112042;-69
2023/06/01 00:35:36;;;;;;;;;;;15.60;99.90;;;;;;7331536;19;109570;-68
2023/06/01 00:38:03;;;;;;;;;;;15.60;99.90;;;;;;7335500;19;110210;-68
2023/06/01 00:40:30;;;;;;;;;;;15.60;99.90;;;;;;7331588;19;110650;-69
2023/06/01 00:42:57;;;;;;;;;;;15.60;99.90;;;;;;7335736;19;111537;-68
2023/06/01 00:45:24;;;;;;;;;;;15.50;99.90;;;;;;7329142;19;111282;-68
2023/06/01 00:47:52;;;;;;;;;;;15.40;99.90;;;;;;7333463;19;111080;-68
2023/06/01 00:50:19;;;;;;;;;;;15.30;99.90;;;;;;7327746;19;110006;-67
2023/06/01 00:52:48;;;;;;;;;;;15.40;99.90;;;;;;7336267;19;110196;-68
2023/06/01 00:55:15;;;;;;;;;;;15.30;99.90;;;;;;7333280;19;109591;-67
2023/06/01 00:57:43;;;;;;;;;;;15.30;99.90;;;;;;7334065;19;110082;-67
2023/06/01 01:00:11;;;;;;;;;;;15.30;99.90;;;;;;7332181;19;110141;-67
2023/06/01 01:02:39;;;;;;;;;;;15.30;99.90;;;;;;7329831;19;112394;-67
2023/06/01 01:05:10;;;;;;;;;;;15.20;99.90;;;;;;7332744;19;111454;-67
2023/06/01 01:07:41;;;;;;;;;;;15.20;99.90;;;;;;7325699;19;110768;-67
2023/06/01 01:10:14;;;;;;;;;;;15.10;99.90;;;;;;7328549;19;111858;-68
2023/06/01 01:12:50;;;;;;;;;;;15.10;99.90;;;;;;7332301;19;114116;-67
2023/06/01 01:15:22;;;;;;;;;;;15.10;99.90;;;;;;7331918;19;109584;-67
2023/06/01 01:17:51;;;;;;;;;;;15.00;99.90;;;;;;7336920;19;112752;-67
2023/06/01 01:20:22;;;;;;;;;;;15.00;99.90;;;;;;7330984;19;110370;-67
2023/06/01 01:22:56;;;;;;;;;;;15.00;99.90;;;;;;7325459;19;111681;-67
2023/06/01 01:25:26;;;;;;;;;;;15.00;99.90;;;;;;7325345;19;110933;-68
2023/06/01 01:27:54;;;;;;;;;;;14.90;99.90;;;;;;7331109;19;110434;-68
2023/06/01 01:30:22;;;;;;;;;;;14.90;99.90;;;;;;7329694;19;110007;-68
2023/06/01 01:32:50;;;;;;;;;;;14.90;99.90;;;;;;7328522;19;110430;-68
2023/06/01 01:35:18;;;;;;;;;;;14.80;99.90;;;;;;7333752;19;110829;-67
2023/06/01 01:37:51;;;;;;;;;;;14.80;99.90;;;;;;7328044;19;111172;-68
2023/06/01 01:40:19;;;;;;;;;;;14.70;99.90;;;;;;7336716;19;113475;-68
2023/06/01 01:42:46;;;;;;;;;;;14.60;99.90;;;;;;7331779;19;110315;-68
2023/06/01 01:45:13;;;;;;;;;;;14.60;99.90;;;;;;7332946;19;111426;-68
2023/06/01 01:47:51;;;;;;;;;;;14.60;99.90;;;;;;7327792;19;119852;-68
2023/06/01 01:50:19;;;;;;;;;;;14.50;99.90;;;;;;7328937;19;110522;-68
2023/06/01 01:52:47;;;;;;;;;;;14.50;99.90;;;;;;7329453;19;110257;-68
2023/06/01 01:55:15;;;;;;;;;;;14.50;99.90;;;;;;7330129;19;111304;-68
2023/06/01 01:57:43;;;;;;;;;;;14.40;99.90;;;;;;7329705;19;109742;-68
2023/06/01 02:00:12;;;;;;;;;;;14.40;99.90;;;;;;7328689;19;111929;-68
2023/06/01 02:02:39;;;;;;;;;;;14.40;99.90;;;;;;7334998;19;109930;-68
2023/06/01 02:05:07;;;;;;;;;;;14.30;99.90;;;;;;7329176;19;112105;-68
2023/06/01 02:07:34;;;;;;;;;;;14.30;99.90;;;;;;7329272;19;110729;-68
2023/06/01 02:10:01;;;;;;;;;;;14.30;99.90;;;;;;7330235;19;110297;-68
2023/06/01 02:12:28;;;;;;;;;;;14.20;99.90;;;;;;7327524;19;111570;-67
2023/06/01 02:14:56;;;;;;;;;;;14.10;99.90;;;;;;7332367;19;110277;-68
2023/06/01 02:17:25;;;;;;;;;;;14.00;99.90;;;;;;7328389;19;109590;-68
2023/06/01 02:19:52;;;;;;;;;;;14.00;99.90;;;;;;7323725;19;110672;-68
2023/06/01 02:22:19;;;;;;;;;;;14.00;99.90;;;;;;7336152;19;109698;-68
2023/06/01 02:24:47;;;;;;;;;;;13.90;99.90;;;;;;7323289;19;112668;-68
2023/06/01 02:27:14;;;;;;;;;;;14.00;99.90;;;;;;7323959;19;112923;-67
2023/06/01 02:29:41;;;;;;;;;;;14.00;99.90;;;;;;7331631;19;111237;-67
2023/06/01 02:32:08;;;;;;;;;;;13.90;99.90;;;;;;7327717;19;110428;-67
2023/06/01 02:34:36;;;;;;;;;;;13.80;99.90;;;;;;7330604;19;110347;-67
2023/06/01 02:37:04;;;;;;;;;;;13.80;99.90;;;;;;7330472;19;109905;-67
2023/06/01 02:39:31;;;;;;;;;;;13.80;99.90;;;;;;7335931;19;110651;-70
2023/06/01 02:41:58;;;;;;;;;;;13.80;99.90;;;;;;7339038;19;110957;-68
2023/06/01 02:44:25;;;;;;;;;;;13.80;99.90;;;;;;7340206;19;110960;-67
2023/06/01 02:46:52;;;;;;;;;;;13.70;99.90;;;;;;7335674;19;110444;-68
2023/06/01 02:49:19;;;;;;;;;;;13.60;99.90;;;;;;7337121;19;111110;-67
2023/06/01 02:51:46;;;;;;;;;;;13.60;99.90;;;;;;7335303;19;112411;-67
2023/06/01 02:54:13;;;;;;;;;;;13.50;99.90;;;;;;7335840;19;109864;-67
2023/06/01 02:56:40;;;;;;;;;;;13.40;99.90;;;;;;7336215;19;109693;-67
2023/06/01 02:59:08;;;;;;;;;;;13.40;99.90;;;;;;7333422;19;113370;-67
2023/06/01 03:01:35;;;;;;;;;;;13.30;99.90;;;;;;7332044;19;110200;-68
2023/06/01 03:04:04;;;;;;;;;;;13.30;99.90;;;;;;7332871;19;110141;-67
2023/06/01 03:06:31;;;;;;;;;;;13.20;99.90;;;;;;7336395;19;115861;-67
2023/06/01 03:08:58;;;;;;;;;;;13.10;99.90;;;;;;7332417;19;109866;-72
2023/06/01 03:11:26;;;;;;;;;;;13.10;99.90;;;;;;7332415;19;111445;-67
2023/06/01 03:13:53;;;;;;;;;;;13.00;99.90;;;;;;7335229;19;109825;-67
2023/06/01 03:16:20;;;;;;;;;;;13.00;99.90;;;;;;7331611;19;110625;-67
2023/06/01 03:18:47;;;;;;;;;;;13.00;99.90;;;;;;7334217;19;110331;-67
2023/06/01 03:21:16;;;;;;;;;;;12.90;99.90;;;;;;7328207;19;109347;-67
2023/06/01 03:23:43;;;;;;;;;;;12.90;99.90;;;;;;7337586;19;110328;-67
2023/06/01 03:26:13;;;;;;;;;;;12.80;99.90;;;;;;7330368;19;110988;-68
2023/06/01 03:28:40;;;;;;;;;;;12.70;99.90;;;;;;7344069;19;109494;-68
2023/06/01 03:31:11;;;;;;;;;;;12.70;99.90;;;;;;7332234;19;110146;-68
2023/06/01 03:33:38;;;;;;;;;;;12.60;99.90;;;;;;7335919;19;109552;-68
2023/06/01 03:36:06;;;;;;;;;;;12.60;99.90;;;;;;7328964;19;110305;-68
2023/06/01 03:38:34;;;;;;;;;;;12.50;99.90;;;;;;7331477;19;110101;-67
2023/06/01 03:41:01;;;;;;;;;;;12.60;99.90;;;;;;7335934;19;109544;-69
2023/06/01 03:43:29;;;;;;;;;;;12.60;99.90;;;;;;7337122;19;109898;-68
2023/06/01 03:45:56;;;;;;;;;;;12.60;99.90;;;;;;7330404;19;110516;-69
2023/06/01 03:48:23;;;;;;;;;;;12.60;99.90;;;;;;7334382;19;110100;-67
2023/06/01 03:50:51;;;;;;;;;;;12.60;99.90;;;;;;7337754;19;109536;-67
2023/06/01 03:53:18;;;;;;;;;;;12.60;99.90;;;;;;7332276;19;110018;-67
2023/06/01 03:55:45;;;;;;;;;;;12.60;99.90;;;;;;7333434;19;109552;-68
2023/06/01 03:58:12;;;;;;;;;;;12.70;99.90;;;;;;7334957;19;110426;-68
2023/06/01 04:00:39;;;;;;;;;;;12.60;99.90;;;;;;7332299;19;110691;-68
2023/06/01 04:03:07;;;;;;;;;;;12.50;99.90;;;;;;7336990;19;110240;-68
2023/06/01 04:05:36;;;;;;;;;;;12.30;99.90;;;;;;7332073;19;110874;-68
2023/06/01 04:08:04;;;;;;;;;;;12.30;99.90;;;;;;7336055;19;109485;-68
2023/06/01 04:10:31;;;;;;;;;;;12.30;99.90;;;;;;7333538;19;109885;-68
2023/06/01 04:12:58;;;;;;;;;;;12.40;99.90;;;;;;7341970;19;111539;-68
2023/06/01 04:15:25;;;;;;;;;;;12.30;99.90;;;;;;7329783;19;110223;-69
2023/06/01 04:17:52;;;;;;;;;;;12.30;99.90;;;;;;7332782;19;110482;-68
2023/06/01 04:20:20;;;;;;;;;;;12.30;99.90;;;;;;7331746;19;109837;-69
2023/06/01 04:22:47;;;;;;;;;;;12.40;99.90;;;;;;7336504;19;109756;-68
2023/06/01 04:25:18;;;;;;;;;;;12.40;99.90;;;;;;7331238;19;112174;-70
2023/06/01 04:27:47;;;;;;;;;;;12.40;99.90;;;;;;7334010;19;109628;-68
2023/06/01 04:30:15;;;;;;;;;;;12.40;99.90;;;;;;7333439;19;110107;-71
2023/06/01 04:32:44;;;;;;;;;;;12.40;99.90;;;;;;7335497;19;112020;-70
2023/06/01 04:35:11;;;;;;;;;;;12.30;99.90;;;;;;7333881;19;109851;-69
2023/06/01 04:37:39;;;;;;;;;;;12.30;99.90;;;;;;7333971;19;110244;-72
2023/06/01 04:40:08;;;;;;;;;;;12.20;99.90;;;;;;7332254;19;115477;-71
2023/06/01 04:42:35;;;;;;;;;;;12.20;99.90;;;;;;7333246;19;111038;-69
2023/06/01 04:45:06;;;;;;;;;;;12.30;99.90;;;;;;7331322;19;110289;-70
2023/06/01 04:47:37;;;;;;;;;;;12.30;99.90;;;;;;7331486;19;109419;-70
2023/06/01 04:50:10;;;;;;;;;;;12.20;99.90;;;;;;7329588;19;109771;-68
2023/06/01 04:52:41;;;;;;;;;;;12.20;99.90;;;;;;7330273;19;111071;-69
2023/06/01 04:55:08;;;;;;;;;;;12.30;99.90;;;;;;7336498;19;110007;-68
2023/06/01 04:57:36;;;;;;;;;;;12.30;99.90;;;;;;7332855;19;110710;-69
2023/06/01 05:00:11;;;;;;;;;;;12.30;99.90;;;;;;7332678;19;109995;-68
2023/06/01 05:02:39;;;;;;;;;;;12.40;99.90;;;;;;7329580;19;111560;-72
2023/06/01 05:05:07;;;;;;;;;;;12.40;99.90;;;;;;7332596;19;110918;-73
2023/06/01 05:07:36;;;;;;;;;;;12.40;99.90;;;;;;7328274;19;109430;-73
2023/06/01 05:10:05;;;;;;;;;;;12.50;99.90;;;;;;7329584;19;110221;-69
2023/06/01 05:12:33;;;;;;;;;;;12.50;99.90;;;;;;7330496;19;110123;-73
2023/06/01 05:15:01;;;;;;;;;;;12.60;99.90;;;;;;7334543;19;109748;-69
2023/06/01 05:17:38;;;;;;;;;;;12.70;99.90;;;;;;7338476;19;109787;-69
2023/06/01 05:20:08;;;;;;;;;;;12.80;99.90;;;;;;7330856;19;111087;-69
2023/06/01 05:22:36;;;;;;;;;;;12.70;99.90;;;;;;7333148;19;109873;-70
2023/06/01 05:25:05;;;;;;;;;;;12.60;99.90;;;;;;7327300;19;110420;-68
2023/06/01 05:27:32;;;;;;;;;;;12.50;99.90;;;;;;7331758;19;110341;-68
2023/06/01 05:30:00;;;;;;;;;;;12.30;99.90;;;;;;7332454;19;110628;-68
2023/06/01 05:32:28;;;;;;;;;;;12.30;99.90;;;;;;7330015;19;113619;-68
2023/06/01 05:34:55;;;;;;;;;;;12.40;99.90;;;;;;7335998;19;110363;-68
2023/06/01 05:37:22;;;;;;;;;;;12.40;99.90;;;;;;7329438;19;110534;-68
2023/06/01 05:39:49;;;;;;;;;;;12.40;99.90;;;;;;7340272;19;111076;-69
2023/06/01 05:42:16;;;;;;;;;;;12.40;99.90;;;;;;7329907;19;110684;-68
2023/06/01 05:44:44;;;;;;;;;;;12.40;99.90;;;;;;7331935;19;112649;-68
2023/06/01 05:47:11;;;;;;;;;;;12.50;99.90;;;;;;7333075;19;111584;-68
2023/06/01 05:49:38;;;;;;;;;;;12.60;99.90;;;;;;7336555;19;111050;-68
2023/06/01 05:52:06;;;;;;;;;;;12.70;99.90;;;;;;7327997;19;110223;-68
2023/06/01 05:54:33;;;;;;;;;;;12.70;99.90;;;;;;7310603;19;111261;-69
2023/06/01 05:57:01;;;;;;;;;;;12.70;99.90;;;;;;7329772;19;111801;-69
2023/06/01 05:59:28;;;;;;;;;;;12.70;99.90;;;;;;7331212;19;111207;-68
2023/06/01 06:01:55;;;;;;;;;;;12.80;99.90;;;;;;7338060;19;109350;-69
2023/06/01 06:04:22;;;;;;;;;;;12.90;99.90;;;;;;7324107;19;109800;-68
2023/06/01 06:06:49;;;;;;;;;;;12.80;99.90;;;;;;7331250;19;109332;-68
2023/06/01 06:09:16;;;;;;;;;;;12.90;99.90;;;;;;7323472;19;116890;-68
2023/06/01 06:11:44;;;;;;;;;;;12.90;99.90;;;;;;7332660;19;111142;-68
2023/06/01 06:14:11;;;;;;;;;;;13.00;99.90;;;;;;7334760;19;111304;-68
2023/06/01 06:16:39;;;;;;;;;;;13.00;99.90;;;;;;7338388;19;110306;-68
2023/06/01 06:19:06;;;;;;;;;;;13.10;99.90;;;;;;7331953;19;110873;-68
2023/06/01 06:21:35;;;;;;;;;;;13.20;99.90;;;;;;7337487;19;109690;-69
2023/06/01 06:24:03;;;;;;;;;;;13.30;99.90;;;;;;7340150;19;112261;-68
2023/06/01 06:26:30;;;;;;;;;;;13.50;99.90;;;;;;7335168;19;110084;-69
2023/06/01 06:28:57;;;;;;;;;;;13.60;99.90;;;;;;7337625;19;110272;-68
2023/06/01 06:31:25;;;;;;;;;;;13.70;99.90;;;;;;7334425;19;109936;-68
2023/06/01 06:33:52;;;;;;;;;;;13.70;99.90;;;;;;7338348;19;109785;-69
2023/06/01 06:36:19;;;;;;;;;;;13.70;99.90;;;;;;7338853;19;110174;-68
2023/06/01 06:38:47;;;;;;;;;;;13.80;99.90;;;;;;7333138;19;111117;-68
2023/06/01 06:41:14;;;;;;;;;;;13.90;99.90;;;;;;7334725;19;109333;-69
2023/06/01 06:43:41;;;;;;;;;;;14.10;99.90;;;;;;7340816;19;109354;-68
2023/06/01 06:46:08;;;;;;;;;;;14.30;99.90;;;;;;7338084;19;109681;-68
2023/06/01 06:48:35;;;;;;;;;;;14.40;99.90;;;;;;7333202;19;110301;-67
2023/06/01 06:51:02;;;;;;;;;;;14.50;99.90;;;;;;7337482;19;110110;-69
2023/06/01 06:53:30;;;;;;;;;;;14.70;99.90;;;;;;7332388;19;110061;-67
2023/06/01 06:55:57;;;;;;;;;;;14.80;99.90;;;;;;7338873;19;110896;-67
2023/06/01 06:58:24;;;;;;;;;;;14.90;99.90;;;;;;7330763;19;111916;-68
2023/06/01 07:00:52;;;;;;;;;;;14.90;99.90;;;;;;7332262;19;110501;-67
2023/06/01 07:03:19;;;;;;;;;;;14.90;99.90;;;;;;7338499;19;109741;-67
2023/06/01 07:05:47;;;;;;;;;;;15.00;99.90;;;;;;7340724;19;111235;-69
2023/06/01 07:08:15;;;;;;;;;;;15.10;99.90;;;;;;7336653;19;110177;-67
2023/06/01 07:10:42;;;;;;;;;;;15.10;99.90;;;;;;7333855;19;110499;-66
2023/06/01 07:13:09;;;;;;;;;;;15.10;99.90;;;;;;7331468;19;109783;-66
2023/06/01 07:15:36;;;;;;;;;;;15.10;99.90;;;;;;7337296;19;110598;-66
2023/06/01 07:18:03;;;;;;;;;;;15.30;99.90;;;;;;7335215;19;111911;-66
2023/06/01 07:20:30;;;;;;;;;;;15.30;99.90;;;;;;7333509;19;111248;-66
2023/06/01 07:22:57;;;;;;;;;;;15.40;99.90;;;;;;7331346;19;109744;-65
2023/06/01 07:25:24;;;;;;;;;;;15.40;99.90;;;;;;7333236;19;110109;-66
2023/06/01 07:27:52;;;;;;;;;;;15.50;99.90;;;;;;7337726;19;110276;-66
2023/06/01 07:30:19;;;;;;;;;;;15.40;99.90;;;;;;7334192;19;111037;-65
2023/06/01 07:32:46;;;;;;;;;;;15.50;99.90;;;;;;7336384;19;109832;-66
2023/06/01 07:35:13;;;;;;;;;;;15.50;99.90;;;;;;7332989;19;112133;-67
2023/06/01 07:37:41;;;;;;;;;;;15.60;99.90;;;;;;7337179;19;113069;-66
2023/06/01 07:40:08;;;;;;;;;;;15.60;99.90;;;;;;7334968;19;109860;-65
2023/06/01 07:42:35;;;;;;;;;;;15.60;99.90;;;;;;7336928;19;111959;-66
2023/06/01 07:45:02;;;;;;;;;;;15.50;99.90;;;;;;7332686;19;112148;-66
2023/06/01 07:47:29;;;;;;;;;;;15.60;99.90;;;;;;7336235;19;109753;-66
2023/06/01 07:49:57;;;;;;;;;;;15.70;99.90;;;;;;7337871;19;110714;-66
2023/06/01 07:52:24;;;;;;;;;;;15.70;99.90;;;;;;7335399;19;110421;-66
2023/06/01 07:54:51;;;;;;;;;;;15.70;99.90;;;;;;7331629;19;112700;-66
2023/06/01 07:57:18;;;;;;;;;;;15.90;99.90;;;;;;7334829;19;110227;-66
2023/06/01 07:59:45;;;;;;;;;;;16.20;99.90;;;;;;7335499;19;109745;-66
2023/06/01 08:02:13;;;;;;;;;;;16.10;99.90;;;;;;7330750;19;109586;-66
2023/06/01 08:04:40;;;;;;;;;;;16.30;99.90;;;;;;7333960;19;111788;-66
2023/06/01 08:07:08;;;;;;;;;;;16.40;99.90;;;;;;7333171;19;109535;-66
2023/06/01 08:09:37;;;;;;;;;;;16.50;99.90;;;;;;7337132;19;111207;-66
2023/06/01 08:12:05;;;;;;;;;;;16.60;99.90;;;;;;7334840;19;110198;-66
2023/06/01 08:14:33;;;;;;;;;;;16.50;99.90;;;;;;7336572;19;109872;-66
2023/06/01 08:17:02;;;;;;;;;;;16.80;99.90;;;;;;7333408;19;110240;-66
2023/06/01 08:19:31;;;;;;;;;;;16.90;99.90;;;;;;7336388;19;109317;-66
2023/06/01 08:21:58;;;;;;;;;;;17.00;99.90;;;;;;7331947;19;110610;-66
2023/06/01 08:24:26;;;;;;;;;;;17.10;99.90;;;;;;7335086;19;110092;-66
2023/06/01 08:26:58;;;;;;;;;;;17.10;99.90;;;;;;7333881;19;110434;-66
2023/06/01 08:29:26;;;;;;;;;;;17.20;99.90;;;;;;7333521;19;111044;-66
2023/06/01 08:32:09;;;;;;;;;;;17.30;99.90;;;;;;7331578;19;111307;-67
2023/06/01 08:34:37;;;;;;;;;;;17.40;99.90;;;;;;7342481;19;110159;-67
2023/06/01 08:37:04;;;;;;;;;;;17.50;99.90;;;;;;7329269;19;110927;-66
2023/06/01 08:39:31;;;;;;;;;;;17.50;99.90;;;;;;7333513;19;113108;-67
2023/06/01 08:42:08;;;;;;;;;;;17.50;99.90;;;;;;7333646;19;111347;-66
2023/06/01 08:44:41;;;;;;;;;;;17.50;99.90;;;;;;7332239;19;111481;-67
2023/06/01 08:47:08;;;;;;;;;;;17.60;99.90;;;;;;7333867;19;111846;-66
2023/06/01 08:49:36;;;;;;;;;;;17.50;99.90;;;;;;7335200;19;113204;-66
2023/06/01 08:52:11;;;;;;;;;;;17.60;99.90;;;;;;7331769;19;111502;-67
2023/06/01 08:54:38;;;;;;;;;;;17.70;99.90;;;;;;7339654;19;110541;-67
2023/06/01 08:57:07;;;;;;;;;;;17.90;99.90;;;;;;7332531;19;110177;-67
2023/06/01 08:59:35;;;;;;;;;;;18.00;99.90;;;;;;7333610;19;110779;-66
2023/06/01 09:02:03;;;;;;;;;;;18.10;99.90;;;;;;7329962;19;110059;-67
2023/06/01 09:04:34;;;;;;;;;;;18.20;99.90;;;;;;7329083;19;112557;-67
2023/06/01 09:07:02;;;;;;;;;;;18.20;99.90;;;;;;7333254;19;110175;-67
2023/06/01 09:09:31;;;;;;;;;;;18.20;99.90;;;;;;7332827;19;109620;-67
2023/06/01 09:12:18;;;;;;;;;;;18.20;99.90;;;;;;7326129;19;110205;-67
2023/06/01 09:14:45;;;;;;;;;;;18.20;99.90;;;;;;7333717;19;109662;-66
2023/06/01 09:17:21;;;;;;;;;;;18.40;99.90;;;;;;7334366;19;109812;-67
2023/06/01 09:19:50;;;;;;;;;;;18.50;99.90;;;;;;7331967;19;110665;-67
2023/06/01 09:22:17;;;;;;;;;;;18.60;99.90;;;;;;7327398;19;111574;-66
2023/06/01 09:24:57;;;;;;;;;;;18.70;99.90;;;;;;7332816;19;111159;-67
2023/06/01 09:27:25;;;;;;;;;;;18.80;99.90;;;;;;7332200;19;109589;-67
2023/06/01 09:29:53;;;;;;;;;;;18.90;99.90;;;;;;7331358;19;109838;-67
2023/06/01 09:32:21;;;;;;;;;;;19.10;99.90;;;;;;7330419;19;110096;-67
2023/06/01 09:34:48;;;;;;;;;;;19.20;99.90;;;;;;7332985;19;109395;-67
2023/06/01 09:37:16;;;;;;;;;;;19.10;99.90;;;;;;7328140;19;109742;-67
2023/06/01 09:39:44;;;;;;;;;;;19.00;99.90;;;;;;7339213;19;110171;-67
2023/06/01 09:42:11;;;;;;;;;;;19.10;99.90;;;;;;7332495;19;111096;-67
2023/06/01 09:44:39;;;;;;;;;;;19.20;99.90;;;;;;7333417;19;110629;-67
2023/06/01 09:47:13;;;;;;;;;;;19.40;99.90;;;;;;7328962;19;114580;-67
2023/06/01 09:49:44;;;;;;;;;;;19.50;99.90;;;;;;7329700;19;110817;-67
2023/06/01 09:52:14;;;;;;;;;;;19.50;99.90;;;;;;7332931;19;115305;-67
2023/06/01 09:54:48;;;;;;;;;;;19.50;99.90;;;;;;7327975;19;109984;-67
2023/06/01 09:57:23;;;;;;;;;;;19.60;99.90;;;;;;7332749;19;110867;-67
2023/06/01 09:59:50;;;;;;;;;;;19.70;99.90;;;;;;7333848;19;110451;-68
2023/06/01 10:02:19;;;;;;;;;;;19.80;99.90;;;;;;7337370;19;110807;-68
2023/06/01 10:04:49;;;;;;;;;;;19.80;99.90;;;;;;7332727;19;110086;-70
2023/06/01 10:07:17;;;;;;;;;;;19.80;99.90;;;;;;7328186;19;110387;-74
2023/06/01 10:09:47;;;;;;;;;;;19.80;99.90;;;;;;7336248;19;109264;-75
2023/06/01 10:12:14;;;;;;;;;;;19.90;99.90;;;;;;7328775;19;110183;-75
2023/06/01 10:14:42;;;;;;;;;;;20.10;99.90;;;;;;7332439;19;110176;-73
2023/06/01 10:17:11;;;;;;;;;;;20.20;99.90;;;;;;7331270;19;109560;-73
2023/06/01 10:19:38;;;;;;;;;;;20.30;99.90;;;;;;7332985;19;110784;-73
2023/06/01 10:22:06;;;;;;;;;;;20.30;99.90;;;;;;7332385;19;109758;-69
2023/06/01 10:24:35;;;;;;;;;;;20.30;99.90;;;;;;7339829;19;109951;-68
2023/06/01 10:27:07;;;;;;;;;;;20.40;99.90;;;;;;7331241;19;109598;-67
2023/06/01 10:29:34;;;;;;;;;;;20.50;99.90;;;;;;7333521;19;110287;-69
2023/06/01 10:32:02;;;;;;;;;;;20.60;99.90;;;;;;7334908;19;111519;-69
2023/06/01 10:34:47;;;;;;;;;;;20.60;99.40;;;;;;7333736;19;109811;-68
2023/06/01 10:37:15;;;;;;;;;;;20.50;99.90;;;;;;7328057;19;111568;-67
2023/06/01 10:39:42;;;;;;;;;;;20.70;99.90;;;;;;7332232;19;110736;-68
2023/06/01 10:42:12;;;;;;;;;;;20.70;99.60;;;;;;7328186;19;111396;-67
2023/06/01 10:44:39;;;;;;;;;;;20.70;99.80;;;;;;7336333;19;111741;-68
2023/06/01 10:47:10;;;;;;;;;;;20.80;99.10;;;;;;7331924;19;109679;-67
2023/06/01 10:49:46;;;;;;;;;;;20.80;99.20;;;;;;7330464;19;110097;-67
2023/06/01 10:52:26;;;;;;;;;;;20.80;99.10;;;;;;7332455;19;111193;-67
2023/06/01 10:55:14;;;;;;;;;;;21.00;99.90;;;;;;7327968;19;109986;-67
2023/06/01 10:57:45;;;;;;;;;;;21.20;99.90;;;;;;7331369;19;110735;-67
2023/06/01 11:00:14;;;;;;;;;;;21.40;99.00;;;;;;7338078;19;113563;-67
2023/06/01 11:02:44;;;;;;;;;;;21.50;99.10;;;;;;7339827;19;109571;-67
2023/06/01 11:05:30;;;;;;;;;;;21.50;98.70;;;;;;7338654;19;110222;-67
2023/06/01 11:07:57;;;;;;;;;;;21.40;98.00;;;;;;7341808;19;111262;-68
2023/06/01 11:10:43;;;;;;;;;;;21.30;98.30;;;;;;7336537;19;110481;-68
2023/06/01 11:13:11;;;;;;;;;;;21.30;98.90;;;;;;7332546;19;111112;-67
2023/06/01 11:15:38;;;;;;;;;;;21.40;98.50;;;;;;7336433;19;109312;-67
2023/06/01 11:18:25;;;;;;;;;;;21.60;99.50;;;;;;7334350;19;109421;-67
2023/06/01 11:20:53;;;;;;;;;;;21.80;98.60;;;;;;7331846;19;111183;-67
2023/06/01 11:23:20;;;;;;;;;;;21.90;98.50;;;;;;7332078;19;111350;-68
2023/06/01 11:25:48;;;;;;;;;;;21.90;98.10;;;;;;7336396;19;109366;-67
2023/06/01 11:28:19;;;;;;;;;;;21.90;97.90;;;;;;7333142;19;111127;-67
2023/06/01 11:30:46;;;;;;;;;;;21.80;97.20;;;;;;7337573;19;110964;-67
2023/06/01 11:33:15;;;;;;;;;;;21.70;96.80;;;;;;7333235;19;111747;-67
2023/06/01 11:35:42;;;;;;;;;;;21.70;97.60;;;;;;7337077;19;109306;-67
2023/06/01 11:38:09;;;;;;;;;;;21.80;97.20;;;;;;7335902;19;109715;-67
2023/06/01 11:40:36;;;;;;;;;;;21.80;97.30;;;;;;7335551;19;110674;-67
2023/06/01 11:43:06;;;;;;;;;;;21.90;98.40;;;;;;7337587;19;110238;-67
2023/06/01 11:45:33;;;;;;;;;;;22.20;97.70;;;;;;7335067;19;110125;-67
2023/06/01 11:48:09;;;;;;;;;;;22.30;97.90;;;;;;7338276;19;110244;-67
2023/06/01 11:50:37;;;;;;;;;;;22.50;96.90;;;;;;7335343;19;110168;-67
2023/06/01 11:53:04;;;;;;;;;;;22.50;95.50;;;;;;7336376;19;111127;-67
2023/06/01 11:55:31;;;;;;;;;;;22.40;95.90;;;;;;7336949;19;110100;-67
2023/06/01 11:57:59;;;;;;;;;;;22.40;96.00;;;;;;7336157;19;109305;-66
2023/06/01 12:00:26;;;;;;;;;;;22.50;95.50;;;;;;7332875;19;110813;-66
2023/06/01 12:03:07;;;;;;;;;;;22.60;96.50;;;;;;7327959;19;111258;-66
2023/06/01 12:05:38;;;;;;;;;;;22.80;96.60;;;;;;7335819;19;109490;-65
2023/06/01 12:08:05;;;;;;;;;;;22.80;94.60;;;;;;7337501;19;110106;-65
2023/06/01 12:10:32;;;;;;;;;;;22.80;95.90;;;;;;7333738;19;110041;-62
2023/06/01 12:12:59;;;;;;;;;;;23.00;94.40;;;;;;7336157;19;109409;-63
2023/06/01 12:15:27;;;;;;;;;;;23.10;95.20;;;;;;7338138;19;111004;-63
2023/06/01 12:17:55;;;;;;;;;;;23.20;95.10;;;;;;7337215;19;110375;-63
2023/06/01 12:20:27;;;;;;;;;;;23.50;95.10;;;;;;7333484;19;111687;-62
2023/06/01 12:22:55;;;;;;;;;;;23.70;95.20;;;;;;7336967;19;109812;-63
2023/06/01 12:25:22;;;;;;;;;;;23.80;94.70;;;;;;7333403;19;109723;-63
2023/06/01 12:28:02;;;;;;;;;;;23.80;93.30;;;;;;7334331;19;110164;-63
2023/06/01 12:30:30;;;;;;;;;;;23.70;91.60;;;;;;7334394;19;109404;-63
2023/06/01 12:32:57;;;;;;;;;;;23.70;94.00;;;;;;7331216;19;113466;-63
2023/06/01 12:35:24;;;;;;;;;;;23.90;93.60;;;;;;7331108;19;110675;-63
2023/06/01 12:38:09;;;;;;;;;;;24.10;92.90;;;;;;7342540;19;109856;-63
2023/06/01 12:40:38;;;;;;;;;;;24.10;92.60;;;;;;7329076;19;114009;-64
2023/06/01 12:43:16;;;;;;;;;;;23.90;92.50;;;;;;7329120;19;110274;-63
2023/06/01 12:45:44;;;;;;;;;;;23.90;92.70;;;;;;7333235;19;110247;-63
2023/06/01 12:48:29;;;;;;;;;;;23.90;93.50;;;;;;7334224;19;111052;-62
2023/06/01 12:50:56;;;;;;;;;;;24.00;92.70;;;;;;7332898;19;110918;-62
2023/06/01 12:53:23;;;;;;;;;;;24.10;92.60;;;;;;7332874;19;109606;-62
2023/06/01 12:55:51;;;;;;;;;;;23.90;92.20;;;;;;7331539;19;112146;-63
2023/06/01 12:58:18;;;;;;;;;;;24.00;92.40;;;;;;7335772;19;110899;-64
2023/06/01 13:00:45;;;;;;;;;;;23.80;92.00;;;;;;7333902;19;110273;-64
2023/06/01 13:03:15;;;;;;;;;;;23.90;92.90;;;;;;7333245;19;109445;-64
2023/06/01 13:05:45;;;;;;;;;;;24.10;92.90;;;;;;7331493;19;110825;-64
2023/06/01 13:08:13;;;;;;;;;;;24.30;93.20;;;;;;7328946;19;110504;-64
2023/06/01 13:10:40;;;;;;;;;;;24.50;92.30;;;;;;7334424;19;110834;-64
2023/06/01 13:13:07;;;;;;;;;;;24.50;92.80;;;;;;7329311;19;110373;-64
2023/06/01 13:15:35;;;;;;;;;;;24.60;91.60;;;;;;7330527;19;110379;-64
2023/06/01 13:18:03;;;;;;;;;;;24.50;91.70;;;;;;7326674;19;109995;-64
2023/06/01 13:20:31;;;;;;;;;;;24.60;91.00;;;;;;7337787;19;110055;-64
2023/06/01 13:22:58;;;;;;;;;;;24.50;90.80;;;;;;7328703;19;109827;-75
2023/06/01 13:25:25;;;;;;;;;;;24.60;92.10;;;;;;7332189;19;109754;-74
2023/06/01 13:27:53;;;;;;;;;;;24.80;91.10;;;;;;7331671;19;111987;-72
2023/06/01 13:30:20;;;;;;;;;;;24.80;91.50;;;;;;7333424;19;111214;-74
2023/06/01 13:32:47;;;;;;;;;;;24.90;92.30;;;;;;7334071;19;111377;-74
2023/06/01 13:35:14;;;;;;;;;;;25.10;92.20;;;;;;7324942;19;110739;-74
2023/06/01 13:37:41;;;;;;;;;;;25.10;92.10;;;;;;7337196;19;109685;-73
2023/06/01 13:40:09;;;;;;;;;;;25.30;91.10;;;;;;7329291;19;112269;-74
2023/06/01 13:42:36;;;;;;;;;;;25.40;90.80;;;;;;7339020;19;110800;-74
2023/06/01 13:45:03;;;;;;;;;;;25.40;91.20;;;;;;7333282;19;110209;-75
2023/06/01 13:47:30;;;;;;;;;;;25.40;90.30;;;;;;7330580;19;111397;-74
2023/06/01 13:49:57;;;;;;;;;;;25.50;91.20;;;;;;7334472;19;109620;-75
2023/06/01 13:52:25;;;;;;;;;;;25.80;91.00;;;;;;7332993;19;111332;-74
2023/06/01 13:54:52;;;;;;;;;;;26.00;90.50;;;;;;7333644;19;110991;-74
2023/06/01 13:57:19;;;;;;;;;;;26.00;90.50;;;;;;7333596;19;110224;-74
2023/06/01 13:59:46;;;;;;;;;;;26.10;88.10;;;;;;7332198;19;109928;-74
2023/06/01 14:02:13;;;;;;;;;;;25.90;89.70;;;;;;7330963;19;113666;-74
2023/06/01 14:04:41;;;;;;;;;;;25.60;90.70;;;;;;7335864;19;109591;-75
2023/06/01 14:07:08;;;;;;;;;;;25.90;90.30;;;;;;7330746;19;114543;-73
2023/06/01 14:09:35;;;;;;;;;;;26.20;91.30;;;;;;7329814;19;112223;-74
2023/06/01 14:12:02;;;;;;;;;;;26.40;90.70;;;;;;7331955;19;111698;-74